sensor_id;sensor_type;location;lat;lon;timestamp;pressure;altitude;pressure_sealevel;temperature;humidity
51439;BME280;38816;51.142;-0.974;2023-01-27T00:00:57;101621.31;;;2.48;100.00
51439;BME280;38816;51.142;-0.974;2023-01-27T00:03:23;101626.13;;;2.57;100.00
51439;BME280;38816;51.142;-0.974;2023-01-27T00:05:49;101613.56;;;2.46;100.00
51439;BME280;38816;51.142;-0.974;2023-01-27T00:08:16;101609.59;;;2.50;100.00
51439;BME280;38816;51.142;-0.974;2023-01-27T00:10:42;101620.41;;;2.59;100.00
51439;BME280;38816;51.142;-0.974;2023-01-27T00:13:12;101610.72;;;2.53;100.00
51439;BME280;38816;51.142;-0.974;2023-01-27T00:15:53;101619.44;;;2.57;100.00
51439;BME280;38816;51.142;-0.974;2023-01-27T00:18:19;101602.97;;;2.52;100.00
51439;BME280;38816;51.142;-0.974;2023-01-27T00:20:46;101597.56;;;2.47;100.00
51439;BME280;38816;51.142;-0.974;2023-01-27T00:23:30;101611.34;;;2.63;100.00
51439;BME280;38816;51.142;-0.974;2023-01-27T00:26:15;101590.72;;;2.46;100.00
51439;BME280;38816;51.142;-0.974;2023-01-27T00:28:43;101601.00;;;2.48;100.00
51439;BME280;38816;51.142;-0.974;2023-01-27T00:31:11;101608.28;;;2.55;100.00
51439;BME280;38816;51.142;-0.974;2023-01-27T00:33:55;101605.63;;;2.53;100.00
51439;BME280;38816;51.142;-0.974;2023-01-27T00:36:26;101603.19;;;2.55;100.00
51439;BME280;38816;51.142;-0.974;2023-01-27T00:38:52;101605.97;;;2.58;100.00
51439;BME280;38816;51.142;-0.974;2023-01-27T00:41:17;101598.03;;;2.53;100.00
51439;BME280;38816;51.142;-0.974;2023-01-27T00:43:49;101588.97;;;2.57;100.00
51439;BME280;38816;51.142;-0.974;2023-01-27T00:46:15;101593.03;;;2.55;100.00
51439;BME280;38816;51.142;-0.974;2023-01-27T00:48:41;101593.25;;;2.58;100.00
51439;BME280;38816;51.142;-0.974;2023-01-27T00:51:07;101601.53;;;2.67;100.00
51439;BME280;38816;51.142;-0.974;2023-01-27T00:53:32;101593.25;;;2.58;100.00
51439;BME280;38816;51.142;-0.974;2023-01-27T00:55:58;101593.50;;;2.61;100.00
51439;BME280;38816;51.142;-0.974;2023-01-27T00:58:24;101608.25;;;2.67;100.00
51439;BME280;38816;51.142;-0.974;2023-01-27T01:00:52;101597.78;;;2.62;100.00
51439;BME280;38816;51.142;-0.974;2023-01-27T01:03:18;101606.03;;;2.71;100.00
51439;BME280;38816;51.142;-0.974;2023-01-27T01:05:43;101596.53;;;2.69;100.00
51439;BME280;38816;51.142;-0.974;2023-01-27T01:08:08;101603.44;;;2.83;100.00
51439;BME280;38816;51.142;-0.974;2023-01-27T01:10:36;101596.38;;;2.79;100.00
51439;BME280;38816;51.142;-0.974;2023-01-27T01:13:01;101582.97;;;2.68;100.00
51439;BME280;38816;51.142;-0.974;2023-01-27T01:15:27;101593.75;;;2.77;100.00
51439;BME280;38816;51.142;-0.974;2023-01-27T01:17:52;101587.34;;;2.83;100.00
51439;BME280;38816;51.142;-0.974;2023-01-27T01:20:17;101587.81;;;2.77;100.00
51439;BME280;38816;51.142;-0.974;2023-01-27T01:22:43;101578.22;;;2.73;100.00
51439;BME280;38816;51.142;-0.974;2023-01-27T01:25:08;101584.16;;;2.73;100.00
51439;BME280;38816;51.142;-0.974;2023-01-27T01:27:33;101585.50;;;2.68;100.00
51439;BME280;38816;51.142;-0.974;2023-01-27T01:29:59;101569.84;;;2.62;100.00
51439;BME280;38816;51.142;-0.974;2023-01-27T01:32:25;101563.34;;;2.66;100.00
51439;BME280;38816;51.142;-0.974;2023-01-27T01:34:50;101589.69;;;2.79;100.00
51439;BME280;38816;51.142;-0.974;2023-01-27T01:37:16;101583.50;;;2.76;100.00
51439;BME280;38816;51.142;-0.974;2023-01-27T01:39:41;101574.44;;;2.79;100.00
51439;BME280;38816;51.142;-0.974;2023-01-27T01:42:07;101579.31;;;2.76;100.00
51439;BME280;38816;51.142;-0.974;2023-01-27T01:44:32;101555.41;;;2.61;100.00
51439;BME280;38816;51.142;-0.974;2023-01-27T01:46:57;101572.50;;;2.64;100.00
51439;BME280;38816;51.142;-0.974;2023-01-27T01:49:36;101568.47;;;2.79;100.00
51439;BME280;38816;51.142;-0.974;2023-01-27T01:52:08;101560.66;;;2.76;100.00
51439;BME280;38816;51.142;-0.974;2023-01-27T01:54:38;101579.53;;;2.79;100.00
51439;BME280;38816;51.142;-0.974;2023-01-27T01:57:07;101576.06;;;2.79;100.00
51439;BME280;38816;51.142;-0.974;2023-01-27T01:59:38;101558.13;;;2.64;100.00
51439;BME280;38816;51.142;-0.974;2023-01-27T02:02:09;101571.94;;;2.68;100.00
51439;BME280;38816;51.142;-0.974;2023-01-27T02:04:42;101562.44;;;2.65;100.00
51439;BME280;38816;51.142;-0.974;2023-01-27T02:07:20;101555.25;;;2.71;100.00
51439;BME280;38816;51.142;-0.974;2023-01-27T02:09:46;101562.44;;;2.65;100.00
51439;BME280;38816;51.142;-0.974;2023-01-27T02:12:11;101571.16;;;2.69;100.00
51439;BME280;38816;51.142;-0.974;2023-01-27T02:14:38;101572.59;;;2.65;100.00
51439;BME280;38816;51.142;-0.974;2023-01-27T02:17:04;101570.97;;;2.66;100.00
51439;BME280;38816;51.142;-0.974;2023-01-27T02:22:24;101558.50;;;2.57;100.00
51439;BME280;38816;51.142;-0.974;2023-01-27T02:24:59;101557.94;;;2.61;100.00
51439;BME280;38816;51.142;-0.974;2023-01-27T02:27:28;101545.25;;;2.61;100.00
51439;BME280;38816;51.142;-0.974;2023-01-27T02:29:53;101561.00;;;2.69;100.00
51439;BME280;38816;51.142;-0.974;2023-01-27T02:32:23;101563.53;;;2.69;100.00
51439;BME280;38816;51.142;-0.974;2023-01-27T02:34:49;101553.94;;;2.65;100.00
51439;BME280;38816;51.142;-0.974;2023-01-27T02:37:14;101553.63;;;2.60;100.00
51439;BME280;38816;51.142;-0.974;2023-01-27T02:39:42;101551.56;;;2.54;100.00
51439;BME280;38816;51.142;-0.974;2023-01-27T02:42:11;101537.66;;;2.61;100.00
51439;BME280;38816;51.142;-0.974;2023-01-27T02:44:38;101538.63;;;2.63;100.00
51439;BME280;38816;51.142;-0.974;2023-01-27T02:47:03;101533.25;;;2.47;100.00
51439;BME280;38816;51.142;-0.974;2023-01-27T02:49:29;101523.66;;;2.43;100.00
51439;BME280;38816;51.142;-0.974;2023-01-27T02:51:54;101548.59;;;2.48;100.00
51439;BME280;38816;51.142;-0.974;2023-01-27T02:54:20;101537.03;;;2.40;100.00
51439;BME280;38816;51.142;-0.974;2023-01-27T02:56:45;101524.25;;;2.39;100.00
51439;BME280;38816;51.142;-0.974;2023-01-27T02:59:13;101534.81;;;2.45;100.00
51439;BME280;38816;51.142;-0.974;2023-01-27T03:01:39;101539.19;;;2.47;100.00
51439;BME280;38816;51.142;-0.974;2023-01-27T03:04:04;101533.25;;;2.47;100.00
51439;BME280;38816;51.142;-0.974;2023-01-27T03:06:30;101531.59;;;2.47;100.00
51439;BME280;38816;51.142;-0.974;2023-01-27T03:08:55;101530.06;;;2.49;100.00
51439;BME280;38816;51.142;-0.974;2023-01-27T03:11:20;101520.91;;;2.40;100.00
51439;BME280;38816;51.142;-0.974;2023-01-27T03:14:07;101536.94;;;2.39;100.00
51439;BME280;38816;51.142;-0.974;2023-01-27T03:16:33;101534.38;;;2.39;100.00
51439;BME280;38816;51.142;-0.974;2023-01-27T03:19:17;101510.56;;;2.25;100.00
51439;BME280;38816;51.142;-0.974;2023-01-27T03:21:42;101520.47;;;2.34;100.00
51439;BME280;38816;51.142;-0.974;2023-01-27T03:24:09;101519.81;;;2.36;100.00
51439;BME280;38816;51.142;-0.974;2023-01-27T03:26:35;101524.91;;;2.36;100.00
51439;BME280;38816;51.142;-0.974;2023-01-27T03:29:03;101516.63;;;2.39;100.00
51439;BME280;38816;51.142;-0.974;2023-01-27T03:31:47;101527.53;;;2.38;100.00
51439;BME280;38816;51.142;-0.974;2023-01-27T03:34:12;101529.75;;;2.33;100.00
51439;BME280;38816;51.142;-0.974;2023-01-27T03:36:37;101509.34;;;2.32;100.00
51439;BME280;38816;51.142;-0.974;2023-01-27T03:39:21;101524.00;;;2.36;100.00
51439;BME280;38816;51.142;-0.974;2023-01-27T03:42:05;101524.91;;;2.36;100.00
51439;BME280;38816;51.142;-0.974;2023-01-27T03:44:49;101526.88;;;2.28;100.00
51439;BME280;38816;51.142;-0.974;2023-01-27T03:47:33;101518.94;;;2.36;100.00
51439;BME280;38816;51.142;-0.974;2023-01-27T03:49:58;101529.66;;;2.32;100.00
51439;BME280;38816;51.142;-0.974;2023-01-27T03:52:24;101528.78;;;2.31;100.00
51439;BME280;38816;51.142;-0.974;2023-01-27T03:54:49;101515.44;;;2.22;100.00
51439;BME280;38816;51.142;-0.974;2023-01-27T03:57:15;101511.47;;;2.25;100.00
51439;BME280;38816;51.142;-0.974;2023-01-27T03:59:40;101510.69;;;2.26;100.00
51439;BME280;38816;51.142;-0.974;2023-01-27T04:02:06;101530.31;;;2.29;100.00
51439;BME280;38816;51.142;-0.974;2023-01-27T04:04:49;101523.56;;;2.29;100.00
51439;BME280;38816;51.142;-0.974;2023-01-27T04:07:34;101541.31;;;2.29;100.00
51439;BME280;38816;51.142;-0.974;2023-01-27T04:10:00;101548.50;;;2.35;100.00
51439;BME280;38816;51.142;-0.974;2023-01-27T04:12:26;101526.56;;;2.36;100.00
51439;BME280;38816;51.142;-0.974;2023-01-27T04:14:51;101532.84;;;2.29;100.00
51439;BME280;38816;51.142;-0.974;2023-01-27T04:17:18;101544.31;;;2.36;100.00
51439;BME280;38816;51.142;-0.974;2023-01-27T04:19:44;101544.97;;;2.33;100.00
51439;BME280;38816;51.142;-0.974;2023-01-27T04:22:13;101538.59;;;2.26;100.00
51439;BME280;38816;51.142;-0.974;2023-01-27T04:24:42;101536.84;;;2.25;100.00
51439;BME280;38816;51.142;-0.974;2023-01-27T04:27:10;101526.69;;;2.25;100.00
51439;BME280;38816;51.142;-0.974;2023-01-27T04:29:38;101526.38;;;2.21;100.00
51439;BME280;38816;51.142;-0.974;2023-01-27T04:32:06;101513.47;;;2.18;100.00
51439;BME280;38816;51.142;-0.974;2023-01-27T04:34:33;101532.19;;;2.20;100.00
51439;BME280;38816;51.142;-0.974;2023-01-27T04:36:58;101532.31;;;2.21;100.00
51439;BME280;38816;51.142;-0.974;2023-01-27T04:39:25;101525.28;;;2.17;100.00
51439;BME280;38816;51.142;-0.974;2023-01-27T04:41:50;101530.34;;;2.17;100.00
51439;BME280;38816;51.142;-0.974;2023-01-27T04:44:16;101530.88;;;2.13;100.00
51439;BME280;38816;51.142;-0.974;2023-01-27T04:46:44;101510.84;;;2.05;100.00
51439;BME280;38816;51.142;-0.974;2023-01-27T04:49:10;101505.88;;;1.94;100.00
51439;BME280;38816;51.142;-0.974;2023-01-27T04:51:35;101501.56;;;1.93;100.00
51439;BME280;38816;51.142;-0.974;2023-01-27T04:54:01;101507.09;;;1.88;100.00
51439;BME280;38816;51.142;-0.974;2023-01-27T04:56:31;101535.75;;;1.98;100.00
51439;BME280;38816;51.142;-0.974;2023-01-27T04:58:58;101527.38;;;1.99;100.00
51439;BME280;38816;51.142;-0.974;2023-01-27T05:01:27;101525.81;;;2.01;100.00
51439;BME280;38816;51.142;-0.974;2023-01-27T05:03:53;101512.94;;;1.98;100.00
51439;BME280;38816;51.142;-0.974;2023-01-27T05:06:19;101519.53;;;1.96;100.00
51439;BME280;38816;51.142;-0.974;2023-01-27T05:08:45;101519.22;;;1.92;100.00
51439;BME280;38816;51.142;-0.974;2023-01-27T05:11:10;101534.44;;;2.03;100.00
51439;BME280;38816;51.142;-0.974;2023-01-27T05:13:36;101535.31;;;2.04;100.00
51439;BME280;38816;51.142;-0.974;2023-01-27T05:16:17;101521.28;;;1.97;100.00
51439;BME280;38816;51.142;-0.974;2023-01-27T05:18:45;101514.56;;;1.98;100.00
51439;BME280;38816;51.142;-0.974;2023-01-27T05:21:13;101530.88;;;2.01;100.00
51439;BME280;38816;51.142;-0.974;2023-01-27T05:23:39;101512.81;;;1.97;100.00
51439;BME280;38816;51.142;-0.974;2023-01-27T05:26:07;101507.09;;;1.99;100.00
51439;BME280;38816;51.142;-0.974;2023-01-27T05:28:34;101519.88;;;2.01;100.00
51439;BME280;38816;51.142;-0.974;2023-01-27T05:31:02;101514.38;;;1.95;100.00
51439;BME280;38816;51.142;-0.974;2023-01-27T05:33:28;101517.34;;;2.01;100.00
51439;BME280;38816;51.142;-0.974;2023-01-27T05:35:57;101513.16;;;1.90;100.00
51439;BME280;38816;51.142;-0.974;2023-01-27T05:38:23;101520.97;;;1.93;100.00
51439;BME280;38816;51.142;-0.974;2023-01-27T05:40:48;101513.50;;;1.83;100.00
51439;BME280;38816;51.142;-0.974;2023-01-27T05:43:14;101506.88;;;1.73;100.00
51439;BME280;38816;51.142;-0.974;2023-01-27T05:45:39;101513.06;;;1.76;100.00
51439;BME280;38816;51.142;-0.974;2023-01-27T05:48:05;101503.66;;;1.75;100.00
51439;BME280;38816;51.142;-0.974;2023-01-27T05:50:30;101503.25;;;1.69;100.00
51439;BME280;38816;51.142;-0.974;2023-01-27T05:52:55;101492.78;;;1.65;100.00
51439;BME280;38816;51.142;-0.974;2023-01-27T05:55:21;101495.53;;;1.68;100.00
51439;BME280;38816;51.142;-0.974;2023-01-27T05:57:46;101509.50;;;1.74;100.00
51439;BME280;38816;51.142;-0.974;2023-01-27T06:00:12;101495.00;;;1.72;100.00
51439;BME280;38816;51.142;-0.974;2023-01-27T06:02:37;101484.84;;;1.72;100.00
51439;BME280;38816;51.142;-0.974;2023-01-27T06:05:03;101509.63;;;1.88;100.00
51439;BME280;38816;51.142;-0.974;2023-01-27T06:07:28;101498.81;;;1.78;100.00
51439;BME280;38816;51.142;-0.974;2023-01-27T06:09:54;101509.53;;;1.86;100.00
51439;BME280;38816;51.142;-0.974;2023-01-27T06:12:19;101507.97;;;1.88;100.00
51439;BME280;38816;51.142;-0.974;2023-01-27T06:14:44;101511.59;;;1.92;100.00
51439;BME280;38816;51.142;-0.974;2023-01-27T06:17:10;101509.72;;;2.01;100.00
51439;BME280;38816;51.142;-0.974;2023-01-27T06:19:35;101515.03;;;2.04;100.00
51439;BME280;38816;51.142;-0.974;2023-01-27T06:22:00;101518.75;;;2.09;100.00
51439;BME280;38816;51.142;-0.974;2023-01-27T06:24:27;101517.00;;;2.08;100.00
51439;BME280;38816;51.142;-0.974;2023-01-27T06:26:52;101510.38;;;2.10;100.00
51439;BME280;38816;51.142;-0.974;2023-01-27T06:29:17;101505.84;;;2.06;100.00
51439;BME280;38816;51.142;-0.974;2023-01-27T06:31:43;101492.75;;;2.00;100.00
51439;BME280;38816;51.142;-0.974;2023-01-27T06:34:08;101501.34;;;2.02;100.00
51439;BME280;38816;51.142;-0.974;2023-01-27T06:36:33;101497.47;;;2.07;100.00
51439;BME280;38816;51.142;-0.974;2023-01-27T06:38:59;101497.91;;;2.13;100.00
51439;BME280;38816;51.142;-0.974;2023-01-27T06:41:24;101510.38;;;2.10;100.00
51439;BME280;38816;51.142;-0.974;2023-01-27T06:43:50;101507.50;;;2.06;100.00
51439;BME280;38816;51.142;-0.974;2023-01-27T06:46:15;101506.22;;;1.99;100.00
51439;BME280;38816;51.142;-0.974;2023-01-27T06:48:41;101508.06;;;2.01;100.00
51439;BME280;38816;51.142;-0.974;2023-01-27T06:51:06;101496.94;;;1.99;100.00
51439;BME280;38816;51.142;-0.974;2023-01-27T06:53:31;101507.59;;;2.07;100.00
51439;BME280;38816;51.142;-0.974;2023-01-27T06:55:59;101509.06;;;2.03;100.00
51439;BME280;38816;51.142;-0.974;2023-01-27T06:58:26;101521.41;;;2.11;100.00
51439;BME280;38816;51.142;-0.974;2023-01-27T07:00:51;101518.34;;;2.03;100.00
51439;BME280;38816;51.142;-0.974;2023-01-27T07:03:17;101523.41;;;2.03;100.00
51439;BME280;38816;51.142;-0.974;2023-01-27T07:05:43;101519.53;;;2.08;100.00
51439;BME280;38816;51.142;-0.974;2023-01-27T07:08:08;101523.06;;;2.10;100.00
51439;BME280;38816;51.142;-0.974;2023-01-27T07:10:34;101507.59;;;2.07;100.00
51439;BME280;38816;51.142;-0.974;2023-01-27T07:13:10;101505.75;;;2.05;100.00
51439;BME280;38816;51.142;-0.974;2023-01-27T07:15:36;101519.75;;;2.11;100.00
51439;BME280;38816;51.142;-0.974;2023-01-27T07:18:02;101518.75;;;2.21;100.00
51439;BME280;38816;51.142;-0.974;2023-01-27T07:20:28;101534.63;;;2.30;100.00
51439;BME280;38816;51.142;-0.974;2023-01-27T07:22:58;101531.97;;;2.28;100.00
51439;BME280;38816;51.142;-0.974;2023-01-27T07:25:24;101505.94;;;2.19;100.00
51439;BME280;38816;51.142;-0.974;2023-01-27T07:27:49;101528.97;;;2.34;100.00
51439;BME280;38816;51.142;-0.974;2023-01-27T07:30:15;101533.94;;;2.33;100.00
51439;BME280;38816;51.142;-0.974;2023-01-27T07:32:40;101533.94;;;2.33;100.00
51439;BME280;38816;51.142;-0.974;2023-01-27T07:35:06;101537.91;;;2.29;100.00
51439;BME280;38816;51.142;-0.974;2023-01-27T07:37:32;101527.44;;;2.24;100.00
51439;BME280;38816;51.142;-0.974;2023-01-27T07:39:58;101547.50;;;2.33;100.00
51439;BME280;38816;51.142;-0.974;2023-01-27T07:42:23;101540.44;;;2.29;100.00
51439;BME280;38816;51.142;-0.974;2023-01-27T07:44:49;101549.38;;;2.36;100.00
51439;BME280;38816;51.142;-0.974;2023-01-27T07:47:14;101548.69;;;2.38;100.00
51439;BME280;38816;51.142;-0.974;2023-01-27T07:49:39;101551.25;;;2.38;100.00
51439;BME280;38816;51.142;-0.974;2023-01-27T07:52:05;101546.28;;;2.40;100.00
51439;BME280;38816;51.142;-0.974;2023-01-27T07:54:30;101544.31;;;2.36;100.00
51439;BME280;38816;51.142;-0.974;2023-01-27T07:56:58;101538.78;;;2.41;100.00
51439;BME280;38816;51.142;-0.974;2023-01-27T07:59:24;101549.66;;;2.52;100.00
51439;BME280;38816;51.142;-0.974;2023-01-27T08:01:49;101541.88;;;2.49;100.00
51439;BME280;38816;51.142;-0.974;2023-01-27T08:04:14;101543.84;;;2.53;100.00
51439;BME280;38816;51.142;-0.974;2023-01-27T08:06:40;101544.03;;;2.56;100.00
51439;BME280;38816;51.142;-0.974;2023-01-27T08:09:05;101543.06;;;2.54;100.00
51439;BME280;38816;51.142;-0.974;2023-01-27T08:11:31;101551.88;;;2.59;100.00
51439;BME280;38816;51.142;-0.974;2023-01-27T08:13:56;101540.41;;;2.52;100.00
51439;BME280;38816;51.142;-0.974;2023-01-27T08:16:22;101555.19;;;2.58;100.00
51439;BME280;38816;51.142;-0.974;2023-01-27T08:18:47;101538.63;;;2.51;100.00
51439;BME280;38816;51.142;-0.974;2023-01-27T08:21:12;101548.53;;;2.60;100.00
51439;BME280;38816;51.142;-0.974;2023-01-27T08:23:38;101532.22;;;2.57;100.00
51439;BME280;38816;51.142;-0.974;2023-01-27T08:26:05;101546.22;;;2.63;100.00
51439;BME280;38816;51.142;-0.974;2023-01-27T08:28:32;101570.28;;;2.68;100.00
51439;BME280;38816;51.142;-0.974;2023-01-27T08:31:09;101557.03;;;2.61;100.00
51439;BME280;38816;51.142;-0.974;2023-01-27T08:33:36;101547.97;;;2.64;100.00
51439;BME280;38816;51.142;-0.974;2023-01-27T08:36:07;101559.25;;;2.68;100.00
51439;BME280;38816;51.142;-0.974;2023-01-27T08:38:33;101565.59;;;2.74;100.00
51439;BME280;38816;51.142;-0.974;2023-01-27T08:41:02;101548.63;;;2.73;100.00
51439;BME280;38816;51.142;-0.974;2023-01-27T08:43:28;101564.28;;;2.79;100.00
51439;BME280;38816;51.142;-0.974;2023-01-27T08:45:53;101568.47;;;2.79;100.00
51439;BME280;38816;51.142;-0.974;2023-01-27T08:48:21;101573.66;;;2.81;100.00
51439;BME280;38816;51.142;-0.974;2023-01-27T08:50:47;101574.63;;;2.83;100.00
51439;BME280;38816;51.142;-0.974;2023-01-27T08:53:12;101566.22;;;2.84;100.00
51439;BME280;38816;51.142;-0.974;2023-01-27T08:55:37;101571.66;;;2.88;100.00
51439;BME280;38816;51.142;-0.974;2023-01-27T08:58:03;101559.63;;;2.86;100.00
51439;BME280;38816;51.142;-0.974;2023-01-27T09:00:28;101569.63;;;2.96;100.00
51439;BME280;38816;51.142;-0.974;2023-01-27T09:02:54;101581.19;;;3.04;100.00
51439;BME280;38816;51.142;-0.974;2023-01-27T09:05:19;101576.34;;;3.07;100.00
51439;BME280;38816;51.142;-0.974;2023-01-27T09:07:46;101589.53;;;3.15;100.00
51439;BME280;38816;51.142;-0.974;2023-01-27T09:10:13;101576.22;;;3.05;100.00
51439;BME280;38816;51.142;-0.974;2023-01-27T09:12:39;101585.22;;;3.14;100.00
51439;BME280;38816;51.142;-0.974;2023-01-27T09:15:05;101587.31;;;3.19;100.00
51439;BME280;38816;51.142;-0.974;2023-01-27T09:17:31;101581.78;;;3.25;100.00
51439;BME280;38816;51.142;-0.974;2023-01-27T09:19:56;101590.75;;;3.33;100.00
51439;BME280;38816;51.142;-0.974;2023-01-27T09:22:21;101579.72;;;3.33;100.00
51439;BME280;38816;51.142;-0.974;2023-01-27T09:24:47;101576.59;;;3.37;100.00
51439;BME280;38816;51.142;-0.974;2023-01-27T09:27:12;101579.59;;;3.43;100.00
51439;BME280;38816;51.142;-0.974;2023-01-27T09:29:37;101595.63;;;3.55;100.00
51439;BME280;38816;51.142;-0.974;2023-01-27T09:32:04;101586.03;;;3.51;100.00
51439;BME280;38816;51.142;-0.974;2023-01-27T09:34:29;101584.41;;;3.51;100.00
51439;BME280;38816;51.142;-0.974;2023-01-27T09:37:02;101586.84;;;3.63;100.00
51439;BME280;38816;51.142;-0.974;2023-01-27T09:39:31;101567.88;;;3.58;100.00
51439;BME280;38816;51.142;-0.974;2023-01-27T09:45:11;101593.13;;;3.81;100.00
51439;BME280;38816;51.142;-0.974;2023-01-27T09:48:04;101592.84;;;3.77;100.00
51439;BME280;38816;51.142;-0.974;2023-01-27T09:53:31;101592.53;;;3.72;100.00
51439;BME280;38816;51.142;-0.974;2023-01-27T09:56:08;101599.78;;;3.79;100.00
51439;BME280;38816;51.142;-0.974;2023-01-27T10:01:27;101601.84;;;3.85;100.00
51439;BME280;38816;51.142;-0.974;2023-01-27T10:07:11;101609.00;;;3.91;100.00
51439;BME280;38816;51.142;-0.974;2023-01-27T10:10:05;101591.16;;;3.77;100.00
51439;BME280;38816;51.142;-0.974;2023-01-27T10:15:42;101609.78;;;4.03;100.00
51439;BME280;38816;51.142;-0.974;2023-01-27T10:21:04;101597.94;;;4.43;100.00
51439;BME280;38816;51.142;-0.974;2023-01-27T10:26:56;101582.94;;;4.48;100.00
51439;BME280;38816;51.142;-0.974;2023-01-27T10:29:25;101558.47;;;4.37;100.00
51439;BME280;38816;51.142;-0.974;2023-01-27T10:32:06;101560.66;;;4.30;100.00
51439;BME280;38816;51.142;-0.974;2023-01-27T10:34:35;101592.56;;;4.25;100.00
51439;BME280;38816;51.142;-0.974;2023-01-27T10:37:13;101589.81;;;4.09;100.00
51439;BME280;38816;51.142;-0.974;2023-01-27T10:39:41;101582.19;;;3.96;100.00
51439;BME280;38816;51.142;-0.974;2023-01-27T10:45:18;101552.06;;;3.89;100.00
51439;BME280;38816;51.142;-0.974;2023-01-27T10:48:20;101576.50;;;4.00;100.00
51439;BME280;38816;51.142;-0.974;2023-01-27T10:50:57;101557.75;;;3.98;100.00
51439;BME280;38816;51.142;-0.974;2023-01-27T10:53:43;101567.22;;;4.00;100.00
51439;BME280;38816;51.142;-0.974;2023-01-27T10:56:18;101567.50;;;4.05;100.00
51439;BME280;38816;51.142;-0.974;2023-01-27T10:59:14;101557.72;;;4.11;100.00
51439;BME280;38816;51.142;-0.974;2023-01-27T11:02:08;101553.59;;;4.13;100.00
51439;BME280;38816;51.142;-0.974;2023-01-27T11:04:45;101547.47;;;3.96;100.00
51439;BME280;38816;51.142;-0.974;2023-01-27T11:07:15;101545.59;;;3.94;100.00
51439;BME280;38816;51.142;-0.974;2023-01-27T11:12:26;101552.84;;;3.88;100.00
51439;BME280;38816;51.142;-0.974;2023-01-27T11:14:53;101559.41;;;3.97;100.00
51439;BME280;38816;51.142;-0.974;2023-01-27T11:20:00;101569.47;;;3.96;100.00
51439;BME280;38816;51.142;-0.974;2023-01-27T11:22:36;101566.75;;;3.93;100.00
51439;BME280;38816;51.142;-0.974;2023-01-27T11:28:09;101564.78;;;4.15;100.00
51439;BME280;38816;51.142;-0.974;2023-01-27T11:30:47;101558.31;;;4.20;100.00
51439;BME280;38816;51.142;-0.974;2023-01-27T11:36:08;101553.00;;;4.44;100.00
51439;BME280;38816;51.142;-0.974;2023-01-27T11:38:35;101549.91;;;4.63;100.00
51439;BME280;38816;51.142;-0.974;2023-01-27T11:41:00;101552.97;;;4.85;100.00
51439;BME280;38816;51.142;-0.974;2023-01-27T11:43:26;101547.63;;;4.95;100.00
51439;BME280;38816;51.142;-0.974;2023-01-27T11:45:59;101555.25;;;5.23;100.00
51439;BME280;38816;51.142;-0.974;2023-01-27T11:48:34;101550.09;;;5.37;100.00
51439;BME280;38816;51.142;-0.974;2023-01-27T11:51:01;101550.16;;;5.53;100.00
51439;BME280;38816;51.142;-0.974;2023-01-27T11:53:29;101544.81;;;5.63;100.00
51439;BME280;38816;51.142;-0.974;2023-01-27T11:56:08;101528.50;;;5.76;97.59
51439;BME280;38816;51.142;-0.974;2023-01-27T11:59:12;101541.47;;;5.94;95.72
51439;BME280;38816;51.142;-0.974;2023-01-27T12:01:50;101522.72;;;5.93;97.11
51439;BME280;38816;51.142;-0.974;2023-01-27T12:04:22;101526.66;;;6.03;93.31
51439;BME280;38816;51.142;-0.974;2023-01-27T12:07:09;101533.19;;;5.98;93.77
51439;BME280;38816;51.142;-0.974;2023-01-27T12:09:40;101516.28;;;5.85;91.67
51439;BME280;38816;51.142;-0.974;2023-01-27T12:14:57;101528.63;;;5.63;92.69
51439;BME280;38816;51.142;-0.974;2023-01-27T12:19:58;101514.19;;;5.48;92.90
51439;BME280;38816;51.142;-0.974;2023-01-27T12:22:32;101503.41;;;5.38;93.20
51439;BME280;38816;51.142;-0.974;2023-01-27T12:25:01;101513.13;;;5.45;93.87
51439;BME280;38816;51.142;-0.974;2023-01-27T12:27:29;101515.34;;;5.39;93.43
51439;BME280;38816;51.142;-0.974;2023-01-27T12:30:00;101512.81;;;5.39;91.91
51439;BME280;38816;51.142;-0.974;2023-01-27T12:32:40;101512.34;;;5.31;91.88
51439;BME280;38816;51.142;-0.974;2023-01-27T12:35:17;101519.91;;;5.44;92.61
51439;BME280;38816;51.142;-0.974;2023-01-27T12:37:44;101527.94;;;5.65;90.89
51439;BME280;38816;51.142;-0.974;2023-01-27T12:40:19;101511.72;;;5.79;92.28
51439;BME280;38816;51.142;-0.974;2023-01-27T12:42:48;101509.41;;;5.99;92.67
51439;BME280;38816;51.142;-0.974;2023-01-27T12:48:32;101498.63;;;6.19;89.48
51439;BME280;38816;51.142;-0.974;2023-01-27T12:51:05;101496.25;;;6.22;87.79
51439;BME280;38816;51.142;-0.974;2023-01-27T12:53:37;101488.59;;;6.22;88.19
51439;BME280;38816;51.142;-0.974;2023-01-27T12:56:18;101500.25;;;6.33;88.18
51439;BME280;38816;51.142;-0.974;2023-01-27T13:03:44;101503.59;;;6.32;85.55
51439;BME280;38816;51.142;-0.974;2023-01-27T13:06:18;101499.44;;;6.18;86.70
51439;BME280;38816;51.142;-0.974;2023-01-27T13:08:46;101513.56;;;6.28;84.24
51439;BME280;38816;51.142;-0.974;2023-01-27T13:11:14;101507.47;;;6.26;85.68
51439;BME280;38816;51.142;-0.974;2023-01-27T13:13:48;101495.63;;;6.26;86.14
51439;BME280;38816;51.142;-0.974;2023-01-27T13:16:17;101501.94;;;6.33;86.47
51439;BME280;38816;51.142;-0.974;2023-01-27T13:18:58;101496.13;;;6.36;86.36
51439;BME280;38816;51.142;-0.974;2023-01-27T13:21:28;101500.34;;;6.35;85.78
51439;BME280;38816;51.142;-0.974;2023-01-27T13:23:56;101499.38;;;6.33;84.53
51439;BME280;38816;51.142;-0.974;2023-01-27T13:26:31;101507.03;;;6.33;85.27
51439;BME280;38816;51.142;-0.974;2023-01-27T13:29:04;101499.31;;;6.31;84.75
51439;BME280;38816;51.142;-0.974;2023-01-27T13:34:37;101502.81;;;6.33;86.73
51439;BME280;38816;51.142;-0.974;2023-01-27T13:37:25;101510.72;;;6.38;85.23
51439;BME280;38816;51.142;-0.974;2023-01-27T13:40:22;101502.81;;;6.33;83.27
51439;BME280;38816;51.142;-0.974;2023-01-27T13:43:17;101506.72;;;6.27;82.26
51439;BME280;38816;51.142;-0.974;2023-01-27T13:46:13;101497.69;;;6.17;82.15